sensor_id;sensor_type;location;lat;lon;timestamp;P1;durP1;ratioP1;P2;durP2;ratioP2
41623;SDS011;27319;50.306;18.926;2023-08-24T00:01:09;7.07;;;3.65;;
41623;SDS011;27319;50.306;18.926;2023-08-24T00:05:09;8.55;;;3.83;;
41623;SDS011;27319;50.306;18.926;2023-08-24T00:09:10;6.90;;;4.00;;
41623;SDS011;27319;50.306;18.926;2023-08-24T00:13:11;5.65;;;3.55;;
41623;SDS011;27319;50.306;18.926;2023-08-24T00:17:12;6.18;;;3.72;;
41623;SDS011;27319;50.306;18.926;2023-08-24T00:21:13;6.65;;;3.78;;
41623;SDS011;27319;50.306;18.926;2023-08-24T00:25:13;7.40;;;4.90;;
41623;SDS011;27319;50.306;18.926;2023-08-24T00:29:14;9.73;;;4.20;;
41623;SDS011;27319;50.306;18.926;2023-08-24T00:33:14;7.80;;;4.00;;
41623;SDS011;27319;50.306;18.926;2023-08-24T00:37:15;5.85;;;3.45;;
41623;SDS011;27319;50.306;18.926;2023-08-24T00:41:16;8.20;;;3.58;;
41623;SDS011;27319;50.306;18.926;2023-08-24T00:45:17;8.10;;;3.85;;
41623;SDS011;27319;50.306;18.926;2023-08-24T00:49:17;8.55;;;4.20;;
41623;SDS011;27319;50.306;18.926;2023-08-24T00:53:18;8.02;;;4.10;;
41623;SDS011;27319;50.306;18.926;2023-08-24T00:57:19;8.23;;;3.83;;
41623;SDS011;27319;50.306;18.926;2023-08-24T01:01:20;8.52;;;4.18;;
41623;SDS011;27319;50.306;18.926;2023-08-24T01:05:20;7.25;;;3.60;;
41623;SDS011;27319;50.306;18.926;2023-08-24T01:09:21;7.10;;;4.00;;
41623;SDS011;27319;50.306;18.926;2023-08-24T01:13:25;11.98;;;3.97;;
41623;SDS011;27319;50.306;18.926;2023-08-24T01:17:37;7.95;;;3.70;;
41623;SDS011;27319;50.306;18.926;2023-08-24T01:21:37;7.32;;;4.10;;
41623;SDS011;27319;50.306;18.926;2023-08-24T01:25:42;7.70;;;3.50;;
41623;SDS011;27319;50.306;18.926;2023-08-24T01:29:37;7.65;;;4.03;;
41623;SDS011;27319;50.306;18.926;2023-08-24T01:33:37;7.60;;;3.85;;
41623;SDS011;27319;50.306;18.926;2023-08-24T01:37:38;10.55;;;3.95;;
41623;SDS011;27319;50.306;18.926;2023-08-24T01:41:38;8.57;;;4.18;;
41623;SDS011;27319;50.306;18.926;2023-08-24T01:45:39;7.93;;;4.07;;
41623;SDS011;27319;50.306;18.926;2023-08-24T01:49:40;5.90;;;3.58;;
41623;SDS011;27319;50.306;18.926;2023-08-24T01:53:41;6.68;;;3.58;;
41623;SDS011;27319;50.306;18.926;2023-08-24T01:57:41;7.88;;;3.80;;
41623;SDS011;27319;50.306;18.926;2023-08-24T02:01:42;5.82;;;3.42;;
41623;SDS011;27319;50.306;18.926;2023-08-24T02:05:43;6.63;;;3.88;;
41623;SDS011;27319;50.306;18.926;2023-08-24T02:09:44;7.60;;;3.55;;
41623;SDS011;27319;50.306;18.926;2023-08-24T02:13:44;7.43;;;3.90;;
41623;SDS011;27319;50.306;18.926;2023-08-24T02:17:45;6.10;;;3.95;;
41623;SDS011;27319;50.306;18.926;2023-08-24T02:21:46;8.25;;;4.03;;
41623;SDS011;27319;50.306;18.926;2023-08-24T02:25:47;10.05;;;4.22;;
41623;SDS011;27319;50.306;18.926;2023-08-24T02:29:35;8.98;;;4.13;;
41623;SDS011;27319;50.306;18.926;2023-08-24T02:33:36;7.15;;;3.97;;
41623;SDS011;27319;50.306;18.926;2023-08-24T02:37:37;4.75;;;3.28;;
41623;SDS011;27319;50.306;18.926;2023-08-24T02:41:38;9.13;;;3.50;;
41623;SDS011;27319;50.306;18.926;2023-08-24T02:45:38;5.55;;;3.85;;
41623;SDS011;27319;50.306;18.926;2023-08-24T02:49:45;8.30;;;3.83;;
41623;SDS011;27319;50.306;18.926;2023-08-24T02:53:46;7.78;;;4.03;;
41623;SDS011;27319;50.306;18.926;2023-08-24T02:57:47;6.13;;;3.80;;
41623;SDS011;27319;50.306;18.926;2023-08-24T03:01:48;5.80;;;4.25;;
41623;SDS011;27319;50.306;18.926;2023-08-24T03:05:55;5.63;;;3.15;;
41623;SDS011;27319;50.306;18.926;2023-08-24T03:09:52;5.50;;;3.42;;
41623;SDS011;27319;50.306;18.926;2023-08-24T03:13:52;5.45;;;3.45;;
41623;SDS011;27319;50.306;18.926;2023-08-24T03:17:53;7.40;;;3.80;;
41623;SDS011;27319;50.306;18.926;2023-08-24T03:21:54;7.80;;;3.65;;
41623;SDS011;27319;50.306;18.926;2023-08-24T03:25:55;12.48;;;3.90;;
41623;SDS011;27319;50.306;18.926;2023-08-24T03:29:35;5.75;;;3.55;;
41623;SDS011;27319;50.306;18.926;2023-08-24T03:33:36;7.00;;;3.55;;
41623;SDS011;27319;50.306;18.926;2023-08-24T03:37:37;9.00;;;3.92;;
41623;SDS011;27319;50.306;18.926;2023-08-24T03:41:38;6.70;;;4.50;;
41623;SDS011;27319;50.306;18.926;2023-08-24T03:45:38;7.35;;;4.30;;
41623;SDS011;27319;50.306;18.926;2023-08-24T03:49:41;5.80;;;3.80;;
41623;SDS011;27319;50.306;18.926;2023-08-24T03:53:39;6.15;;;4.05;;
41623;SDS011;27319;50.306;18.926;2023-08-24T03:57:40;6.43;;;3.75;;
41623;SDS011;27319;50.306;18.926;2023-08-24T04:01:41;7.50;;;4.15;;
41623;SDS011;27319;50.306;18.926;2023-08-24T04:05:42;6.38;;;3.60;;
41623;SDS011;27319;50.306;18.926;2023-08-24T04:09:43;7.03;;;3.97;;
41623;SDS011;27319;50.306;18.926;2023-08-24T04:13:43;7.85;;;4.07;;
41623;SDS011;27319;50.306;18.926;2023-08-24T04:17:44;8.18;;;3.83;;
41623;SDS011;27319;50.306;18.926;2023-08-24T04:21:45;7.18;;;4.13;;
41623;SDS011;27319;50.306;18.926;2023-08-24T04:25:45;6.68;;;4.13;;
41623;SDS011;27319;50.306;18.926;2023-08-24T04:29:42;8.73;;;4.10;;
41623;SDS011;27319;50.306;18.926;2023-08-24T04:33:43;5.68;;;4.30;;
41623;SDS011;27319;50.306;18.926;2023-08-24T04:37:44;6.50;;;4.20;;
41623;SDS011;27319;50.306;18.926;2023-08-24T04:41:44;8.10;;;4.30;;
41623;SDS011;27319;50.306;18.926;2023-08-24T04:45:46;5.38;;;3.65;;
41623;SDS011;27319;50.306;18.926;2023-08-24T04:49:46;8.00;;;4.82;;
41623;SDS011;27319;50.306;18.926;2023-08-24T04:53:47;7.32;;;4.40;;
41623;SDS011;27319;50.306;18.926;2023-08-24T04:57:47;6.35;;;4.20;;
41623;SDS011;27319;50.306;18.926;2023-08-24T05:01:48;8.00;;;4.22;;
41623;SDS011;27319;50.306;18.926;2023-08-24T05:05:49;13.10;;;4.60;;
41623;SDS011;27319;50.306;18.926;2023-08-24T05:09:50;8.45;;;4.93;;
41623;SDS011;27319;50.306;18.926;2023-08-24T05:13:50;10.95;;;5.20;;
41623;SDS011;27319;50.306;18.926;2023-08-24T05:17:52;10.10;;;4.88;;
41623;SDS011;27319;50.306;18.926;2023-08-24T05:21:52;10.63;;;5.75;;
41623;SDS011;27319;50.306;18.926;2023-08-24T05:25:14;8.45;;;6.20;;
41623;SDS011;27319;50.306;18.926;2023-08-24T05:29:15;10.82;;;7.38;;
41623;SDS011;27319;50.306;18.926;2023-08-24T05:33:16;12.32;;;8.68;;
41623;SDS011;27319;50.306;18.926;2023-08-24T05:37:17;12.77;;;7.82;;
41623;SDS011;27319;50.306;18.926;2023-08-24T05:41:17;17.42;;;7.93;;
41623;SDS011;27319;50.306;18.926;2023-08-24T05:45:18;14.38;;;8.13;;
41623;SDS011;27319;50.306;18.926;2023-08-24T05:49:19;10.98;;;7.80;;
41623;SDS011;27319;50.306;18.926;2023-08-24T05:53:20;14.27;;;9.20;;
41623;SDS011;27319;50.306;18.926;2023-08-24T05:57:21;22.52;;;9.65;;
41623;SDS011;27319;50.306;18.926;2023-08-24T06:01:02;18.45;;;11.27;;
41623;SDS011;27319;50.306;18.926;2023-08-24T06:04:04;13.80;;;9.10;;
41623;SDS011;27319;50.306;18.926;2023-08-24T06:08:04;14.63;;;8.93;;
41623;SDS011;27319;50.306;18.926;2023-08-24T06:12:04;16.60;;;9.32;;
41623;SDS011;27319;50.306;18.926;2023-08-24T06:15:10;18.05;;;10.52;;
41623;SDS011;27319;50.306;18.926;2023-08-24T06:19:11;21.15;;;11.65;;
41623;SDS011;27319;50.306;18.926;2023-08-24T06:23:12;22.63;;;11.35;;
41623;SDS011;27319;50.306;18.926;2023-08-24T06:27:12;28.10;;;11.07;;
41623;SDS011;27319;50.306;18.926;2023-08-24T06:31:13;20.08;;;11.02;;
41623;SDS011;27319;50.306;18.926;2023-08-24T06:35:14;16.42;;;9.82;;
41623;SDS011;27319;50.306;18.926;2023-08-24T06:39:15;23.10;;;9.77;;
41623;SDS011;27319;50.306;18.926;2023-08-24T06:43:16;26.55;;;10.70;;
41623;SDS011;27319;50.306;18.926;2023-08-24T06:47:17;25.88;;;10.90;;
41623;SDS011;27319;50.306;18.926;2023-08-24T06:51:18;19.63;;;10.05;;
41623;SDS011;27319;50.306;18.926;2023-08-24T06:55:18;22.25;;;10.30;;
41623;SDS011;27319;50.306;18.926;2023-08-24T06:59:19;18.50;;;8.63;;
41623;SDS011;27319;50.306;18.926;2023-08-24T07:03:20;19.08;;;8.05;;
41623;SDS011;27319;50.306;18.926;2023-08-24T07:07:21;17.67;;;8.30;;
41623;SDS011;27319;50.306;18.926;2023-08-24T07:11:22;13.05;;;6.55;;
41623;SDS011;27319;50.306;18.926;2023-08-24T07:15:11;13.88;;;5.78;;
41623;SDS011;27319;50.306;18.926;2023-08-24T07:18:13;11.70;;;6.32;;
41623;SDS011;27319;50.306;18.926;2023-08-24T07:21:13;11.95;;;6.32;;
41623;SDS011;27319;50.306;18.926;2023-08-24T07:24:16;14.38;;;7.35;;
41623;SDS011;27319;50.306;18.926;2023-08-24T07:27:19;13.15;;;6.60;;
41623;SDS011;27319;50.306;18.926;2023-08-24T07:30:20;17.77;;;6.68;;
41623;SDS011;27319;50.306;18.926;2023-08-24T07:34:21;10.02;;;4.50;;
41623;SDS011;27319;50.306;18.926;2023-08-24T07:38:22;8.65;;;4.68;;
41623;SDS011;27319;50.306;18.926;2023-08-24T07:41:23;10.63;;;4.75;;
41623;SDS011;27319;50.306;18.926;2023-08-24T07:45:24;9.15;;;5.13;;
41623;SDS011;27319;50.306;18.926;2023-08-24T07:49:24;15.48;;;5.85;;
41623;SDS011;27319;50.306;18.926;2023-08-24T07:53:25;22.38;;;9.93;;
41623;SDS011;27319;50.306;18.926;2023-08-24T07:57:26;14.52;;;6.25;;
41623;SDS011;27319;50.306;18.926;2023-08-24T08:01:27;17.42;;;7.60;;
41623;SDS011;27319;50.306;18.926;2023-08-24T08:05:27;13.35;;;6.43;;
41623;SDS011;27319;50.306;18.926;2023-08-24T08:09:28;11.30;;;6.50;;
41623;SDS011;27319;50.306;18.926;2023-08-24T08:13:29;15.25;;;7.13;;
41623;SDS011;27319;50.306;18.926;2023-08-24T08:17:30;10.52;;;6.43;;
41623;SDS011;27319;50.306;18.926;2023-08-24T08:21:31;12.00;;;5.35;;
41623;SDS011;27319;50.306;18.926;2023-08-24T08:25:31;8.75;;;4.88;;
41623;SDS011;27319;50.306;18.926;2023-08-24T08:29:08;8.85;;;5.32;;
41623;SDS011;27319;50.306;18.926;2023-08-24T08:33:09;9.10;;;4.85;;
41623;SDS011;27319;50.306;18.926;2023-08-24T08:37:09;11.50;;;4.80;;
41623;SDS011;27319;50.306;18.926;2023-08-24T08:41:13;9.45;;;4.82;;
41623;SDS011;27319;50.306;18.926;2023-08-24T08:45:14;10.63;;;4.57;;
41623;SDS011;27319;50.306;18.926;2023-08-24T08:49:14;8.98;;;3.50;;
41623;SDS011;27319;50.306;18.926;2023-08-24T08:53:15;9.45;;;3.83;;
41623;SDS011;27319;50.306;18.926;2023-08-24T08:57:16;6.28;;;3.95;;
41623;SDS011;27319;50.306;18.926;2023-08-24T09:01:16;8.90;;;3.60;;
41623;SDS011;27319;50.306;18.926;2023-08-24T09:05:17;9.57;;;3.33;;
41623;SDS011;27319;50.306;18.926;2023-08-24T09:09:18;7.40;;;2.88;;
41623;SDS011;27319;50.306;18.926;2023-08-24T09:13:19;7.05;;;2.58;;
41623;SDS011;27319;50.306;18.926;2023-08-24T09:16:21;5.13;;;2.58;;
41623;SDS011;27319;50.306;18.926;2023-08-24T09:19:29;7.10;;;2.80;;
41623;SDS011;27319;50.306;18.926;2023-08-24T09:22:34;4.88;;;2.25;;
41623;SDS011;27319;50.306;18.926;2023-08-24T09:26:33;6.57;;;2.75;;
41623;SDS011;27319;50.306;18.926;2023-08-24T09:29:37;4.63;;;2.42;;
41623;SDS011;27319;50.306;18.926;2023-08-24T09:32:38;3.58;;;2.60;;
41623;SDS011;27319;50.306;18.926;2023-08-24T09:35:39;4.25;;;2.53;;
41623;SDS011;27319;50.306;18.926;2023-08-24T09:38:47;6.68;;;2.88;;
41623;SDS011;27319;50.306;18.926;2023-08-24T09:41:49;6.70;;;2.83;;
41623;SDS011;27319;50.306;18.926;2023-08-24T09:44:51;5.80;;;3.13;;
41623;SDS011;27319;50.306;18.926;2023-08-24T09:48:55;5.70;;;2.80;;
41623;SDS011;27319;50.306;18.926;2023-08-24T09:52:56;6.47;;;2.50;;
41623;SDS011;27319;50.306;18.926;2023-08-24T09:56:02;4.68;;;2.97;;
41623;SDS011;27319;50.306;18.926;2023-08-24T09:59:12;5.20;;;2.83;;
41623;SDS011;27319;50.306;18.926;2023-08-24T10:03:14;3.55;;;2.80;;
41623;SDS011;27319;50.306;18.926;2023-08-24T10:07:13;7.63;;;3.53;;
41623;SDS011;27319;50.306;18.926;2023-08-24T10:11:15;5.07;;;2.78;;
41623;SDS011;27319;50.306;18.926;2023-08-24T10:15:10;6.75;;;2.70;;
41623;SDS011;27319;50.306;18.926;2023-08-24T10:18:13;4.85;;;2.40;;
41623;SDS011;27319;50.306;18.926;2023-08-24T10:22:13;8.93;;;2.65;;
41623;SDS011;27319;50.306;18.926;2023-08-24T10:25:31;9.35;;;2.50;;
41623;SDS011;27319;50.306;18.926;2023-08-24T10:29:31;6.28;;;2.88;;
41623;SDS011;27319;50.306;18.926;2023-08-24T10:32:33;6.72;;;3.13;;
41623;SDS011;27319;50.306;18.926;2023-08-24T10:36:33;6.13;;;2.75;;
41623;SDS011;27319;50.306;18.926;2023-08-24T10:40:35;4.82;;;2.58;;
41623;SDS011;27319;50.306;18.926;2023-08-24T10:44:05;5.85;;;2.72;;
41623;SDS011;27319;50.306;18.926;2023-08-24T10:47:15;5.63;;;2.70;;
41623;SDS011;27319;50.306;18.926;2023-08-24T10:50:19;6.93;;;2.75;;
41623;SDS011;27319;50.306;18.926;2023-08-24T10:53:43;6.78;;;2.90;;
41623;SDS011;27319;50.306;18.926;2023-08-24T10:57:26;6.43;;;3.58;;
41623;SDS011;27319;50.306;18.926;2023-08-24T11:01:26;5.20;;;2.70;;
41623;SDS011;27319;50.306;18.926;2023-08-24T11:05:22;6.85;;;2.75;;
41623;SDS011;27319;50.306;18.926;2023-08-24T11:09:23;5.38;;;3.00;;
41623;SDS011;27319;50.306;18.926;2023-08-24T11:13:25;7.63;;;2.50;;
41623;SDS011;27319;50.306;18.926;2023-08-24T11:16:39;4.60;;;2.50;;
41623;SDS011;27319;50.306;18.926;2023-08-24T11:20:03;3.38;;;2.60;;
41623;SDS011;27319;50.306;18.926;2023-08-24T11:23:43;3.42;;;2.28;;
41623;SDS011;27319;50.306;18.926;2023-08-24T11:26:45;7.50;;;2.50;;
41623;SDS011;27319;50.306;18.926;2023-08-24T11:29:57;4.60;;;2.70;;
41623;SDS011;27319;50.306;18.926;2023-08-24T11:33:00;5.10;;;2.70;;
41623;SDS011;27319;50.306;18.926;2023-08-24T11:36:03;5.57;;;2.20;;
41623;SDS011;27319;50.306;18.926;2023-08-24T11:39:04;2.80;;;2.08;;
41623;SDS011;27319;50.306;18.926;2023-08-24T11:42:06;5.18;;;3.08;;
41623;SDS011;27319;50.306;18.926;2023-08-24T11:45:51;4.57;;;2.22;;
41623;SDS011;27319;50.306;18.926;2023-08-24T11:48:52;2.92;;;2.28;;
41623;SDS011;27319;50.306;18.926;2023-08-24T11:51:53;4.95;;;2.20;;
41623;SDS011;27319;50.306;18.926;2023-08-24T11:54:58;4.55;;;2.40;;
41623;SDS011;27319;50.306;18.926;2023-08-24T11:58:55;4.72;;;2.40;;
41623;SDS011;27319;50.306;18.926;2023-08-24T12:02:57;6.25;;;2.55;;
41623;SDS011;27319;50.306;18.926;2023-08-24T12:06:57;4.60;;;2.25;;
41623;SDS011;27319;50.306;18.926;2023-08-24T12:10:01;7.93;;;2.00;;
41623;SDS011;27319;50.306;18.926;2023-08-24T12:13:03;3.42;;;2.20;;
41623;SDS011;27319;50.306;18.926;2023-08-24T12:16:10;3.13;;;1.90;;
41623;SDS011;27319;50.306;18.926;2023-08-24T12:19:33;3.75;;;2.10;;
41623;SDS011;27319;50.306;18.926;2023-08-24T12:22:33;4.72;;;2.58;;
41623;SDS011;27319;50.306;18.926;2023-08-24T12:26:34;6.90;;;2.40;;
41623;SDS011;27319;50.306;18.926;2023-08-24T12:29:43;5.68;;;2.30;;
41623;SDS011;27319;50.306;18.926;2023-08-24T12:32:46;4.82;;;2.40;;
41623;SDS011;27319;50.306;18.926;2023-08-24T12:35:48;3.83;;;2.42;;
41623;SDS011;27319;50.306;18.926;2023-08-24T12:38:49;6.45;;;3.15;;
41623;SDS011;27319;50.306;18.926;2023-08-24T12:41:50;7.53;;;2.63;;
41623;SDS011;27319;50.306;18.926;2023-08-24T12:44:51;4.20;;;2.67;;
41623;SDS011;27319;50.306;18.926;2023-08-24T12:47:54;11.90;;;2.75;;
41623;SDS011;27319;50.306;18.926;2023-08-24T12:50:55;3.38;;;2.47;;
41623;SDS011;27319;50.306;18.926;2023-08-24T12:53:56;5.68;;;2.35;;
41623;SDS011;27319;50.306;18.926;2023-08-24T12:56:57;3.38;;;2.20;;
41623;SDS011;27319;50.306;18.926;2023-08-24T12:59:58;3.15;;;2.25;;
41623;SDS011;27319;50.306;18.926;2023-08-24T13:03:59;3.90;;;2.67;;
41623;SDS011;27319;50.306;18.926;2023-08-24T13:08:00;4.82;;;2.47;;
41623;SDS011;27319;50.306;18.926;2023-08-24T13:11:00;4.80;;;2.00;;
41623;SDS011;27319;50.306;18.926;2023-08-24T13:14:02;4.63;;;2.83;;
41623;SDS011;27319;50.306;18.926;2023-08-24T13:17:03;6.97;;;2.60;;
41623;SDS011;27319;50.306;18.926;2023-08-24T13:21:04;2.72;;;2.25;;
41623;SDS011;27319;50.306;18.926;2023-08-24T13:25:00;5.65;;;2.30;;
41623;SDS011;27319;50.306;18.926;2023-08-24T13:28:18;3.63;;;2.50;;
41623;SDS011;27319;50.306;18.926;2023-08-24T13:31:20;3.45;;;2.30;;
41623;SDS011;27319;50.306;18.926;2023-08-24T13:35:21;5.15;;;2.30;;
41623;SDS011;27319;50.306;18.926;2023-08-24T13:38:22;3.65;;;2.55;;
41623;SDS011;27319;50.306;18.926;2023-08-24T13:41:23;3.78;;;2.20;;
41623;SDS011;27319;50.306;18.926;2023-08-24T13:44:24;2.90;;;2.10;;
41623;SDS011;27319;50.306;18.926;2023-08-24T13:47:42;6.20;;;2.10;;
41623;SDS011;27319;50.306;18.926;2023-08-24T13:50:49;9.43;;;2.50;;
41623;SDS011;27319;50.306;18.926;2023-08-24T13:53:53;3.42;;;2.13;;
41623;SDS011;27319;50.306;18.926;2023-08-24T13:57:54;7.70;;;3.20;;
41623;SDS011;27319;50.306;18.926;2023-08-24T14:01:54;4.25;;;2.15;;
41623;SDS011;27319;50.306;18.926;2023-08-24T14:05:55;7.28;;;2.83;;
41623;SDS011;27319;50.306;18.926;2023-08-24T14:09:56;8.77;;;3.47;;
41623;SDS011;27319;50.306;18.926;2023-08-24T14:13:57;5.28;;;2.30;;
41623;SDS011;27319;50.306;18.926;2023-08-24T14:16:58;6.95;;;2.30;;
41623;SDS011;27319;50.306;18.926;2023-08-24T14:19:59;3.90;;;2.20;;
41623;SDS011;27319;50.306;18.926;2023-08-24T14:23:00;4.57;;;3.15;;
41623;SDS011;27319;50.306;18.926;2023-08-24T14:26:02;4.55;;;2.42;;
41623;SDS011;27319;50.306;18.926;2023-08-24T14:29:03;4.82;;;2.55;;
41623;SDS011;27319;50.306;18.926;2023-08-24T14:32:04;6.00;;;2.40;;
41623;SDS011;27319;50.306;18.926;2023-08-24T14:35:05;3.88;;;2.28;;
41623;SDS011;27319;50.306;18.926;2023-08-24T14:38:06;4.28;;;2.38;;
41623;SDS011;27319;50.306;18.926;2023-08-24T14:41:08;4.40;;;2.40;;
41623;SDS011;27319;50.306;18.926;2023-08-24T14:44:10;4.65;;;3.00;;
41623;SDS011;27319;50.306;18.926;2023-08-24T14:47:11;7.20;;;3.40;;
41623;SDS011;27319;50.306;18.926;2023-08-24T14:50:12;13.63;;;6.38;;
41623;SDS011;27319;50.306;18.926;2023-08-24T14:53:13;5.40;;;3.00;;
41623;SDS011;27319;50.306;18.926;2023-08-24T14:56:14;5.90;;;2.67;;
41623;SDS011;27319;50.306;18.926;2023-08-24T15:00:15;4.55;;;3.08;;
41623;SDS011;27319;50.306;18.926;2023-08-24T15:04:16;4.32;;;2.60;;
41623;SDS011;27319;50.306;18.926;2023-08-24T15:07:17;3.80;;;2.60;;
41623;SDS011;27319;50.306;18.926;2023-08-24T15:11:05;4.60;;;2.78;;
41623;SDS011;27319;50.306;18.926;2023-08-24T15:15:06;8.10;;;3.30;;
41623;SDS011;27319;50.306;18.926;2023-08-24T15:18:09;5.78;;;2.88;;
41623;SDS011;27319;50.306;18.926;2023-08-24T15:22:04;7.80;;;2.90;;
41623;SDS011;27319;50.306;18.926;2023-08-24T15:25:05;3.92;;;2.53;;
41623;SDS011;27319;50.306;18.926;2023-08-24T15:28:07;6.22;;;3.00;;
41623;SDS011;27319;50.306;18.926;2023-08-24T15:31:08;4.53;;;2.88;;
41623;SDS011;27319;50.306;18.926;2023-08-24T15:34:09;5.70;;;2.97;;
41623;SDS011;27319;50.306;18.926;2023-08-24T15:37:10;6.22;;;3.10;;
41623;SDS011;27319;50.306;18.926;2023-08-24T15:40:12;63.15;;;19.67;;
41623;SDS011;27319;50.306;18.926;2023-08-24T15:43:13;83.50;;;26.45;;
41623;SDS011;27319;50.306;18.926;2023-08-24T15:46:14;89.20;;;28.90;;
41623;SDS011;27319;50.306;18.926;2023-08-24T15:49:14;33.67;;;12.80;;
41623;SDS011;27319;50.306;18.926;2023-08-24T15:52:16;8.32;;;3.08;;
41623;SDS011;27319;50.306;18.926;2023-08-24T15:55:16;3.42;;;2.80;;
41623;SDS011;27319;50.306;18.926;2023-08-24T15:58:17;6.93;;;2.47;;
41623;SDS011;27319;50.306;18.926;2023-08-24T16:01:18;8.57;;;2.55;;
41623;SDS011;27319;50.306;18.926;2023-08-24T16:05:19;5.35;;;2.55;;
41623;SDS011;27319;50.306;18.926;2023-08-24T16:09:20;4.35;;;2.90;;
41623;SDS011;27319;50.306;18.926;2023-08-24T16:13:21;8.05;;;4.35;;
41623;SDS011;27319;50.306;18.926;2023-08-24T16:16:22;6.57;;;3.70;;
41623;SDS011;27319;50.306;18.926;2023-08-24T16:19:24;3.85;;;2.70;;
41623;SDS011;27319;50.306;18.926;2023-08-24T16:22:25;4.38;;;2.92;;
41623;SDS011;27319;50.306;18.926;2023-08-24T16:25:26;4.88;;;3.40;;
41623;SDS011;27319;50.306;18.926;2023-08-24T16:28:27;6.38;;;3.10;;
41623;SDS011;27319;50.306;18.926;2023-08-24T16:31:28;3.88;;;2.95;;
41623;SDS011;27319;50.306;18.926;2023-08-24T16:34:29;6.28;;;3.05;;
41623;SDS011;27319;50.306;18.926;2023-08-24T16:37:30;3.72;;;2.67;;
41623;SDS011;27319;50.306;18.926;2023-08-24T16:40:34;5.63;;;3.45;;
41623;SDS011;27319;50.306;18.926;2023-08-24T16:43:36;5.03;;;3.50;;
41623;SDS011;27319;50.306;18.926;2023-08-24T16:46:37;8.35;;;3.90;;
41623;SDS011;27319;50.306;18.926;2023-08-24T16:49:38;5.45;;;3.78;;
41623;SDS011;27319;50.306;18.926;2023-08-24T16:52:39;7.18;;;3.42;;
41623;SDS011;27319;50.306;18.926;2023-08-24T16:55:40;7.72;;;4.18;;
41623;SDS011;27319;50.306;18.926;2023-08-24T16:58:41;7.28;;;4.10;;
41623;SDS011;27319;50.306;18.926;2023-08-24T17:01:42;7.25;;;4.25;;
41623;SDS011;27319;50.306;18.926;2023-08-24T17:04:42;5.35;;;3.58;;
41623;SDS011;27319;50.306;18.926;2023-08-24T17:08:00;4.20;;;3.38;;
41623;SDS011;27319;50.306;18.926;2023-08-24T17:11:04;7.25;;;3.58;;
41623;SDS011;27319;50.306;18.926;2023-08-24T17:14:05;5.50;;;3.40;;
41623;SDS011;27319;50.306;18.926;2023-08-24T17:18:06;3.88;;;2.88;;
41623;SDS011;27319;50.306;18.926;2023-08-24T17:22:07;7.15;;;3.55;;
41623;SDS011;27319;50.306;18.926;2023-08-24T17:26:08;7.75;;;3.50;;
41623;SDS011;27319;50.306;18.926;2023-08-24T17:29:09;9.13;;;3.13;;
41623;SDS011;27319;50.306;18.926;2023-08-24T17:32:10;6.05;;;4.10;;
41623;SDS011;27319;50.306;18.926;2023-08-24T17:35:11;6.47;;;3.70;;
41623;SDS011;27319;50.306;18.926;2023-08-24T17:38:12;5.60;;;3.70;;
41623;SDS011;27319;50.306;18.926;2023-08-24T17:41:13;6.80;;;3.70;;
41623;SDS011;27319;50.306;18.926;2023-08-24T17:44:14;5.57;;;4.00;;
41623;SDS011;27319;50.306;18.926;2023-08-24T17:47:15;7.78;;;4.90;;
41623;SDS011;27319;50.306;18.926;2023-08-24T17:50:17;11.57;;;4.32;;
41623;SDS011;27319;50.306;18.926;2023-08-24T17:53:19;7.55;;;3.97;;
41623;SDS011;27319;50.306;18.926;2023-08-24T17:56:22;7.00;;;4.30;;
41623;SDS011;27319;50.306;18.926;2023-08-24T17:59:23;8.15;;;4.00;;
41623;SDS011;27319;50.306;18.926;2023-08-24T18:02:24;7.72;;;4.10;;
41623;SDS011;27319;50.306;18.926;2023-08-24T18:05:25;6.25;;;3.47;;
41623;SDS011;27319;50.306;18.926;2023-08-24T18:08:26;8.00;;;3.90;;
41623;SDS011;27319;50.306;18.926;2023-08-24T18:11:27;5.68;;;3.97;;
41623;SDS011;27319;50.306;18.926;2023-08-24T18:14:28;8.55;;;3.20;;
41623;SDS011;27319;50.306;18.926;2023-08-24T18:18:29;8.38;;;4.63;;
41623;SDS011;27319;50.306;18.926;2023-08-24T18:22:31;6.85;;;3.83;;
41623;SDS011;27319;50.306;18.926;2023-08-24T18:26:31;7.13;;;4.45;;
41623;SDS011;27319;50.306;18.926;2023-08-24T18:30:11;9.68;;;4.85;;
41623;SDS011;27319;50.306;18.926;2023-08-24T18:34:12;6.53;;;3.97;;
41623;SDS011;27319;50.306;18.926;2023-08-24T18:38:13;9.32;;;4.18;;
41623;SDS011;27319;50.306;18.926;2023-08-24T18:41:33;7.03;;;3.78;;
41623;SDS011;27319;50.306;18.926;2023-08-24T18:44:34;8.30;;;4.03;;
41623;SDS011;27319;50.306;18.926;2023-08-24T18:47:35;5.25;;;3.50;;
41623;SDS011;27319;50.306;18.926;2023-08-24T18:50:37;6.38;;;3.85;;
41623;SDS011;27319;50.306;18.926;2023-08-24T18:53:37;6.47;;;4.45;;
41623;SDS011;27319;50.306;18.926;2023-08-24T18:56:40;9.30;;;4.32;;
41623;SDS011;27319;50.306;18.926;2023-08-24T18:59:41;6.97;;;4.68;;
41623;SDS011;27319;50.306;18.926;2023-08-24T19:02:43;7.13;;;5.15;;
41623;SDS011;27319;50.306;18.926;2023-08-24T19:06:43;10.07;;;5.55;;
41623;SDS011;27319;50.306;18.926;2023-08-24T19:10:44;14.32;;;7.22;;
41623;SDS011;27319;50.306;18.926;2023-08-24T19:14:44;9.30;;;5.38;;
41623;SDS011;27319;50.306;18.926;2023-08-24T19:17:45;8.82;;;5.32;;
41623;SDS011;27319;50.306;18.926;2023-08-24T19:20:47;8.95;;;5.90;;
41623;SDS011;27319;50.306;18.926;2023-08-24T19:23:47;9.25;;;4.82;;
41623;SDS011;27319;50.306;18.926;2023-08-24T19:26:49;6.82;;;4.65;;
41623;SDS011;27319;50.306;18.926;2023-08-24T19:29:51;8.02;;;5.28;;
41623;SDS011;27319;50.306;18.926;2023-08-24T19:32:52;10.73;;;4.65;;
41623;SDS011;27319;50.306;18.926;2023-08-24T19:35:52;9.68;;;4.63;;
41623;SDS011;27319;50.306;18.926;2023-08-24T19:38:54;9.13;;;4.65;;
41623;SDS011;27319;50.306;18.926;2023-08-24T19:41:55;8.82;;;4.22;;
41623;SDS011;27319;50.306;18.926;2023-08-24T19:44:56;7.32;;;4.13;;
41623;SDS011;27319;50.306;18.926;2023-08-24T19:47:57;6.82;;;4.72;;
41623;SDS011;27319;50.306;18.926;2023-08-24T19:51:58;9.98;;;4.13;;
41623;SDS011;27319;50.306;18.926;2023-08-24T19:55:58;8.40;;;5.22;;
41623;SDS011;27319;50.306;18.926;2023-08-24T19:59:59;6.65;;;4.35;;
41623;SDS011;27319;50.306;18.926;2023-08-24T20:04:00;11.70;;;4.45;;
41623;SDS011;27319;50.306;18.926;2023-08-24T20:08:00;9.68;;;4.93;;
41623;SDS011;27319;50.306;18.926;2023-08-24T20:12:02;7.03;;;4.72;;
41623;SDS011;27319;50.306;18.926;2023-08-24T20:15:11;7.82;;;4.53;;
41623;SDS011;27319;50.306;18.926;2023-08-24T20:18:13;9.30;;;5.57;;
41623;SDS011;27319;50.306;18.926;2023-08-24T20:21:13;11.15;;;5.40;;
41623;SDS011;27319;50.306;18.926;2023-08-24T20:24:15;9.43;;;5.13;;
41623;SDS011;27319;50.306;18.926;2023-08-24T20:28:16;9.75;;;5.25;;
41623;SDS011;27319;50.306;18.926;2023-08-24T20:31:17;9.40;;;4.57;;
41623;SDS011;27319;50.306;18.926;2023-08-24T20:34:18;9.73;;;4.85;;
41623;SDS011;27319;50.306;18.926;2023-08-24T20:37:21;9.00;;;4.90;;
41623;SDS011;27319;50.306;18.926;2023-08-24T20:40:22;10.40;;;6.03;;
41623;SDS011;27319;50.306;18.926;2023-08-24T20:43:23;10.00;;;5.30;;
41623;SDS011;27319;50.306;18.926;2023-08-24T20:46:24;8.48;;;5.43;;
41623;SDS011;27319;50.306;18.926;2023-08-24T20:49:25;11.75;;;5.68;;
41623;SDS011;27319;50.306;18.926;2023-08-24T20:52:26;12.15;;;6.13;;
41623;SDS011;27319;50.306;18.926;2023-08-24T20:55:27;10.52;;;5.25;;
41623;SDS011;27319;50.306;18.926;2023-08-24T20:59:28;6.72;;;4.60;;
41623;SDS011;27319;50.306;18.926;2023-08-24T21:02:29;8.18;;;5.15;;